createdAt,value
2023-03-16T00:00:21.514Z,6.90
2023-03-16T00:03:10.862Z,10.70
2023-03-16T00:05:38.655Z,16.80
2023-03-16T00:08:06.369Z,15.50
2023-03-16T00:10:34.162Z,13.20
2023-03-16T00:13:02.875Z,11.10
2023-03-16T00:15:30.648Z,13.70
2023-03-16T00:17:58.509Z,13.80
2023-03-16T00:20:27.759Z,13.90
2023-03-16T00:22:55.719Z,11.60
2023-03-16T00:25:24.414Z,14.50
2023-03-16T00:27:52.399Z,21.90
2023-03-16T00:30:20.175Z,11.90
2023-03-16T00:32:47.925Z,12.70
2023-03-16T00:35:18.287Z,12.50
2023-03-16T00:37:46.163Z,11.00
2023-03-16T00:40:15.209Z,11.30
2023-03-16T00:42:43.847Z,15.70
2023-03-16T00:45:11.979Z,13.10
2023-03-16T00:47:39.723Z,16.20
2023-03-16T00:50:07.818Z,15.40
2023-03-16T00:52:35.727Z,13.60
2023-03-16T00:55:04.862Z,15.60
2023-03-16T00:57:32.637Z,16.80
2023-03-16T01:00:02.328Z,16.70
2023-03-16T01:02:30.063Z,14.20
2023-03-16T01:04:58.407Z,16.70
2023-03-16T01:07:26.661Z,10.40
2023-03-16T01:09:54.615Z,14.30
2023-03-16T01:12:22.585Z,14.60
2023-03-16T01:14:50.295Z,15.40
2023-03-16T01:17:18.381Z,13.90
2023-03-16T01:19:46.734Z,17.60
2023-03-16T01:22:15.466Z,18.50
2023-03-16T01:24:45.390Z,14.50
2023-03-16T01:29:43.876Z,13.60
2023-03-16T01:32:12.576Z,14.80
2023-03-16T01:34:40.345Z,14.10
2023-03-16T01:37:08.698Z,16.40
2023-03-16T01:39:41.909Z,14.00
2023-03-16T01:42:10.329Z,15.40
2023-03-16T01:45:29.604Z,15.30
2023-03-16T01:47:58.766Z,15.30
2023-03-16T01:50:27.610Z,15.80
2023-03-16T01:52:56.221Z,19.80
2023-03-16T01:55:24.104Z,13.30
2023-03-16T01:57:51.934Z,13.20
2023-03-16T02:00:23.740Z,14.80
2023-03-16T02:03:18.285Z,11.60
2023-03-16T02:06:04.828Z,15.80
2023-03-16T02:08:34.062Z,11.70
2023-03-16T02:11:02.691Z,16.80
2023-03-16T02:13:43.572Z,11.30
2023-03-16T02:16:14.645Z,15.60
2023-03-16T02:18:42.576Z,16.80
2023-03-16T02:21:33.812Z,17.70
2023-03-16T02:24:03.881Z,13.80
2023-03-16T02:26:47.686Z,12.30
2023-03-16T02:29:57.467Z,15.50
2023-03-16T02:32:28.083Z,15.10
2023-03-16T02:34:56.965Z,13.50
2023-03-16T02:37:26.222Z,20.20
2023-03-16T02:39:54.272Z,11.40
2023-03-16T02:42:26.595Z,12.80
2023-03-16T02:44:59.379Z,16.20
2023-03-16T02:47:36.108Z,11.00
2023-03-16T02:50:07.798Z,14.00
2023-03-16T02:52:37.639Z,13.70
2023-03-16T02:55:07.767Z,15.70
2023-03-16T03:00:17.506Z,12.70
2023-03-16T03:02:46.393Z,14.40
2023-03-16T03:05:14.427Z,13.50
2023-03-16T03:07:42.342Z,17.60
2023-03-16T03:10:11.130Z,21.00
2023-03-16T03:12:39.656Z,16.80
2023-03-16T03:15:09.834Z,15.30
2023-03-16T03:17:46.647Z,10.20
2023-03-16T03:20:16.986Z,17.70
2023-03-16T03:22:47.692Z,13.60
2023-03-16T03:25:17.282Z,15.40
2023-03-16T03:27:46.442Z,17.30
2023-03-16T03:30:21.570Z,14.40
2023-03-16T03:32:49.368Z,14.50
2023-03-16T03:35:19.295Z,17.20
2023-03-16T03:37:47.524Z,16.80
2023-03-16T03:40:18.602Z,14.70
2023-03-16T03:42:48.929Z,18.90
2023-03-16T03:45:17.506Z,13.90
2023-03-16T03:47:45.470Z,14.70
2023-03-16T03:50:17.787Z,16.70
2023-03-16T03:53:00.997Z,17.50
2023-03-16T03:55:29.812Z,16.10
2023-03-16T03:57:57.542Z,15.70
2023-03-16T04:00:25.602Z,20.40
2023-03-16T04:02:54.014Z,16.90
2023-03-16T04:05:33.155Z,12.80
2023-03-16T04:08:00.896Z,14.30
2023-03-16T04:10:30.424Z,14.10
2023-03-16T04:13:00.295Z,14.50
2023-03-16T04:15:32.882Z,14.50
2023-03-16T04:18:18.047Z,11.90
2023-03-16T04:20:45.884Z,15.20
2023-03-16T04:23:17.084Z,11.90
2023-03-16T04:25:45.577Z,14.90
2023-03-16T04:28:18.104Z,15.00
2023-03-16T04:30:46.933Z,13.10
2023-03-16T04:33:19.170Z,11.70
2023-03-16T04:35:47.733Z,15.30
2023-03-16T04:38:15.978Z,14.20
2023-03-16T04:40:54.202Z,13.40
2023-03-16T04:43:24.724Z,13.40
2023-03-16T04:45:55.996Z,16.80
2023-03-16T04:48:25.760Z,16.70
2023-03-16T04:50:53.778Z,14.90
2023-03-16T04:53:21.572Z,14.60
2023-03-16T04:55:54.002Z,13.20
2023-03-16T04:58:22.825Z,17.00
2023-03-16T05:00:55.423Z,15.40
2023-03-16T05:05:54.710Z,12.20
2023-03-16T05:08:22.730Z,14.30
2023-03-16T05:10:51.252Z,12.50
2023-03-16T05:13:19.780Z,14.10
2023-03-16T05:15:48.128Z,14.20
2023-03-16T05:18:21.661Z,14.50
2023-03-16T05:23:19.986Z,12.20
2023-03-16T05:25:53.498Z,18.00
2023-03-16T05:28:23.726Z,15.80
2023-03-16T05:31:12.382Z,15.50
2023-03-16T05:33:43.110Z,17.30
2023-03-16T05:38:42.744Z,20.10
2023-03-16T05:43:54.488Z,17.50
2023-03-16T05:46:22.905Z,22.60
2023-03-16T05:48:51.207Z,18.30
2023-03-16T05:51:19.673Z,16.90
2023-03-16T05:53:49.205Z,15.10
2023-03-16T05:56:26.283Z,14.50
2023-03-16T05:58:55.844Z,22.60
2023-03-16T06:01:24.224Z,20.30
2023-03-16T06:03:52.421Z,15.20
2023-03-16T06:06:22.647Z,14.10
2023-03-16T06:09:10.639Z,19.00
2023-03-16T06:11:38.759Z,17.80
2023-03-16T06:14:06.794Z,15.80
2023-03-16T06:16:34.600Z,17.30
2023-03-16T06:19:02.446Z,20.90
2023-03-16T06:21:31.447Z,22.00
2023-03-16T06:24:04.372Z,20.10
2023-03-16T06:26:32.565Z,17.90
2023-03-16T06:29:00.711Z,17.80
2023-03-16T06:31:28.661Z,18.60
2023-03-16T06:33:56.990Z,28.80
2023-03-16T06:36:25.542Z,20.90
2023-03-16T06:38:55.017Z,21.70
2023-03-16T06:44:13.442Z,23.10
2023-03-16T06:46:47.491Z,18.40
2023-03-16T06:49:15.217Z,17.50
2023-03-16T06:51:42.990Z,20.60
2023-03-16T06:54:11.792Z,20.20
2023-03-16T06:56:40.698Z,22.70
2023-03-16T06:59:08.711Z,18.40
2023-03-16T07:01:37.607Z,21.40
2023-03-16T07:04:05.441Z,21.90
2023-03-16T07:06:35.223Z,20.90
2023-03-16T07:09:05.091Z,17.30
2023-03-16T07:11:35.338Z,22.00
2023-03-16T07:14:03.494Z,26.70
2023-03-16T07:16:34.248Z,16.90
2023-03-16T07:19:05.220Z,24.00
2023-03-16T07:21:40.114Z,13.60
2023-03-16T07:24:12.900Z,13.60
2023-03-16T07:26:42.321Z,6.20
2023-03-16T07:29:12.392Z,13.90
2023-03-16T07:34:16.730Z,10.00
2023-03-16T07:36:52.656Z,14.40
2023-03-16T07:39:21.584Z,14.30
2023-03-16T07:41:51.778Z,14.40
2023-03-16T07:44:31.320Z,16.80
2023-03-16T07:47:00.411Z,14.80
2023-03-16T07:49:29.149Z,15.20
2023-03-16T07:52:02.005Z,11.90
2023-03-16T07:54:38.196Z,11.80
2023-03-16T07:57:08.291Z,14.30
2023-03-16T07:59:41.931Z,13.80
2023-03-16T08:02:17.411Z,11.90
2023-03-16T08:04:52.496Z,16.40
2023-03-16T08:07:21.775Z,14.80
2023-03-16T08:09:53.971Z,10.30
2023-03-16T08:12:26.802Z,10.80
2023-03-16T08:14:55.028Z,10.90
2023-03-16T08:17:28.461Z,11.70
2023-03-16T08:19:57.778Z,11.50
2023-03-16T08:22:27.873Z,14.40
2023-03-16T08:24:56.701Z,11.00
2023-03-16T08:27:26.312Z,8.60
2023-03-16T08:30:07.687Z,9.60
2023-03-16T08:32:42.619Z,10.80
2023-03-16T08:35:16.522Z,9.40
2023-03-16T08:37:46.436Z,7.70
2023-03-16T08:40:17.014Z,6.20
2023-03-16T08:42:46.831Z,4.40
2023-03-16T08:45:15.280Z,6.90
2023-03-16T08:47:44.906Z,9.70
2023-03-16T08:50:15.477Z,6.00
2023-03-16T08:52:45.519Z,7.40
2023-03-16T08:55:15.528Z,7.40
2023-03-16T08:57:45.661Z,7.20
2023-03-16T09:00:15.283Z,4.70
2023-03-16T09:02:45.671Z,6.20
2023-03-16T09:05:23.346Z,5.90
2023-03-16T09:08:00.136Z,5.90
2023-03-16T09:10:30.066Z,6.60
2023-03-16T09:12:59.654Z,4.90
2023-03-16T09:15:33.903Z,6.30
2023-03-16T09:18:04.100Z,5.80
2023-03-16T09:20:33.261Z,6.00
2023-03-16T09:23:01.947Z,4.70
2023-03-16T09:25:30.857Z,6.00
2023-03-16T09:28:00.951Z,4.50
2023-03-16T09:30:29.751Z,7.10
2023-03-16T09:33:04.275Z,3.80
2023-03-16T09:35:35.949Z,4.30
2023-03-16T09:38:07.002Z,3.80
2023-03-16T09:40:38.348Z,6.40
2023-03-16T09:43:59.630Z,3.80
2023-03-16T09:46:33.927Z,6.70
2023-03-16T09:49:04.960Z,5.30
2023-03-16T09:52:00.525Z,4.70
2023-03-16T09:54:43.408Z,4.40
2023-03-16T09:57:35.563Z,3.60
2023-03-16T10:00:31.685Z,3.40
2023-03-16T10:03:05.681Z,5.50
2023-03-16T10:05:37.301Z,2.40
2023-03-16T10:08:24.588Z,5.70
2023-03-16T10:11:26.841Z,2.90
2023-03-16T10:14:30.204Z,4.50
2023-03-16T10:17:11.707Z,4.00
2023-03-16T10:19:45.952Z,2.90
2023-03-16T10:22:26.552Z,4.70
2023-03-16T10:25:31.114Z,3.00
2023-03-16T10:27:59.857Z,3.70
2023-03-16T10:30:30.090Z,3.60
2023-03-16T10:33:17.348Z,2.70
2023-03-16T10:35:54.109Z,4.30
2023-03-16T10:38:33.021Z,2.90
2023-03-16T10:41:32.076Z,3.00
2023-03-16T10:44:25.516Z,4.40
2023-03-16T10:47:06.531Z,4.90
2023-03-16T10:49:48.857Z,8.70
2023-03-16T10:52:40.801Z,4.00
2023-03-16T10:55:19.722Z,6.10
2023-03-16T10:57:53.684Z,3.40
2023-03-16T11:00:25.349Z,4.40
2023-03-16T11:02:55.522Z,3.30
2023-03-16T11:05:24.873Z,5.30
2023-03-16T11:08:15.423Z,3.90
2023-03-16T11:10:56.286Z,4.90
2023-03-16T11:13:33.869Z,4.20
2023-03-16T11:16:25.206Z,3.10
2023-03-16T11:19:03.991Z,5.50
2023-03-16T11:21:57.182Z,4.40
2023-03-16T11:24:52.718Z,3.20
2023-03-16T11:27:27.802Z,5.30
2023-03-16T11:30:18.015Z,4.70
2023-03-16T11:32:53.994Z,5.50
2023-03-16T11:35:58.771Z,6.50
2023-03-16T11:41:28.938Z,5.80
2023-03-16T11:44:07.248Z,5.30
2023-03-16T11:46:54.356Z,4.10
2023-03-16T12:15:53.368Z,5.30
2023-03-16T12:18:27.395Z,8.90
2023-03-16T12:21:01.622Z,7.00
2023-03-16T12:23:34.549Z,2.80
2023-03-16T12:26:03.787Z,5.40
2023-03-16T12:28:33.545Z,4.60
2023-03-16T12:31:17.925Z,4.60
2023-03-16T12:34:21.600Z,5.30
2023-03-16T12:37:02.868Z,5.50
2023-03-16T12:39:41.469Z,5.20
2023-03-16T12:42:29.366Z,4.50
2023-03-16T12:45:03.676Z,4.70
2023-03-16T12:47:49.109Z,4.10
2023-03-16T12:50:19.814Z,4.90
2023-03-16T12:52:54.135Z,5.70
2023-03-16T12:55:34.648Z,4.10
2023-03-16T12:58:08.995Z,4.60
2023-03-16T13:00:42.784Z,5.40
2023-03-16T13:03:21.110Z,4.70
2023-03-16T13:05:55.597Z,4.30
2023-03-16T13:08:24.586Z,3.40
2023-03-16T13:11:05.040Z,4.60
2023-03-16T13:13:34.242Z,2.70
2023-03-16T13:16:22.313Z,4.50
2023-03-16T13:18:54.847Z,2.90
2023-03-16T13:21:26.065Z,7.40
2023-03-16T13:24:12.223Z,4.80
2023-03-16T13:26:45.529Z,2.60
2023-03-16T13:29:25.784Z,3.20
2023-03-16T13:32:08.710Z,3.80
2023-03-16T13:34:56.733Z,2.80
2023-03-16T13:37:28.561Z,3.00
2023-03-16T13:40:00.023Z,3.90
2023-03-16T13:42:32.441Z,5.90
2023-03-16T13:45:13.502Z,5.90
2023-03-16T13:47:44.333Z,4.60
2023-03-16T13:50:14.244Z,7.10
2023-03-16T13:52:56.732Z,3.00
2023-03-16T13:55:38.395Z,4.50
2023-03-16T13:58:19.146Z,4.40
2023-03-16T14:00:47.107Z,5.80
2023-03-16T14:03:17.820Z,5.50
2023-03-16T14:05:47.538Z,2.60
2023-03-16T14:08:26.263Z,1.80
2023-03-16T14:10:59.224Z,4.30
2023-03-16T14:13:29.187Z,4.00
2023-03-16T14:16:01.303Z,6.30
2023-03-16T14:18:47.512Z,5.80
2023-03-16T14:21:44.028Z,5.10
2023-03-16T14:24:33.730Z,5.30
2023-03-16T14:27:53.347Z,3.70
2023-03-16T14:30:25.995Z,5.40
2023-03-16T14:33:05.873Z,4.00
2023-03-16T14:35:41.774Z,1.90
2023-03-16T14:38:37.117Z,5.00
2023-03-16T14:41:13.580Z,1.80
2023-03-16T14:44:00.147Z,5.50
2023-03-16T14:46:31.696Z,5.00
2023-03-16T14:49:10.283Z,4.50
2023-03-16T14:51:40.725Z,3.60
2023-03-16T14:54:21.739Z,3.00
2023-03-16T14:56:55.741Z,9.20
2023-03-16T14:59:23.481Z,3.50
2023-03-16T15:01:53.561Z,3.80
2023-03-16T15:04:28.460Z,5.60
2023-03-16T15:06:56.320Z,4.40
2023-03-16T15:09:43.795Z,2.70
2023-03-16T15:12:15.648Z,3.80
2023-03-16T15:15:02.613Z,4.90
2023-03-16T15:17:30.540Z,4.00
2023-03-16T15:19:58.867Z,3.50
2023-03-16T15:22:33.711Z,5.60
2023-03-16T15:25:27.282Z,3.20
2023-03-16T15:27:55.609Z,4.30
2023-03-16T15:30:26.432Z,3.70
2023-03-16T15:32:54.348Z,4.40
2023-03-16T15:35:22.232Z,2.80
2023-03-16T15:37:50.095Z,4.30
2023-03-16T15:40:20.677Z,4.40
2023-03-16T15:42:48.540Z,5.50
2023-03-16T15:45:20.587Z,4.00
2023-03-16T15:47:53.220Z,3.70
2023-03-16T15:50:24.648Z,3.40
2023-03-16T15:52:58.203Z,5.40
2023-03-16T15:55:42.039Z,3.50
2023-03-16T15:58:32.241Z,6.10
2023-03-16T16:01:01.752Z,2.70
2023-03-16T16:05:57.557Z,3.20
2023-03-16T16:08:25.662Z,6.50
2023-03-16T16:10:54.638Z,3.40
2023-03-16T16:13:37.414Z,2.90
2023-03-16T16:16:13.999Z,3.30
2023-03-16T16:18:42.447Z,2.00
2023-03-16T16:21:22.874Z,2.70
2023-03-16T16:23:52.905Z,4.80
2023-03-16T16:26:48.361Z,4.80
2023-03-16T16:29:23.883Z,2.40
2023-03-16T16:31:52.366Z,15.60
2023-03-16T16:34:25.079Z,6.00
2023-03-16T16:36:57.406Z,3.90
2023-03-16T16:39:25.563Z,5.30
2023-03-16T16:41:56.516Z,6.60
2023-03-16T16:44:27.786Z,10.60
2023-03-16T16:46:55.851Z,4.10
2023-03-16T16:49:28.270Z,4.80
2023-03-16T16:51:57.333Z,6.40
2023-03-16T16:54:29.194Z,4.40
2023-03-16T16:56:59.379Z,6.10
2023-03-16T16:59:32.399Z,6.60
2023-03-16T17:02:03.235Z,7.30
2023-03-16T17:04:31.264Z,6.60
2023-03-16T17:07:02.015Z,9.20
2023-03-16T17:09:30.630Z,6.40
2023-03-16T17:12:01.016Z,5.30
2023-03-16T17:14:31.357Z,6.70
2023-03-16T17:17:05.226Z,6.80
2023-03-16T17:19:33.256Z,7.00
2023-03-16T17:22:17.196Z,6.80
2023-03-16T17:24:44.970Z,6.50
2023-03-16T17:27:14.349Z,9.00
2023-03-16T17:29:42.740Z,5.70
2023-03-16T17:32:22.708Z,8.70
2023-03-16T17:34:51.699Z,6.90
2023-03-16T17:37:22.122Z,6.90
2023-03-16T17:39:51.976Z,8.80
2023-03-16T17:42:22.620Z,7.60
2023-03-16T17:44:52.392Z,8.60
2023-03-16T17:47:26.351Z,7.50
2023-03-16T17:49:54.746Z,8.50
2023-03-16T17:52:25.699Z,10.00
2023-03-16T17:54:54.047Z,7.30
2023-03-16T17:57:40.129Z,11.50
2023-03-16T18:00:30.239Z,12.80
2023-03-16T18:03:03.883Z,9.50
2023-03-16T18:05:36.857Z,12.00
2023-03-16T18:08:15.134Z,10.70
2023-03-16T18:10:45.537Z,10.30
2023-03-16T18:13:23.367Z,13.50
2023-03-16T18:15:52.112Z,13.90
2023-03-16T18:18:23.055Z,11.60
2023-03-16T18:20:57.031Z,10.30
2023-03-16T18:23:28.898Z,17.30
2023-03-16T18:26:03.962Z,20.60
2023-03-16T18:28:33.738Z,14.40
2023-03-16T18:31:03.769Z,20.50
2023-03-16T18:33:31.614Z,21.60
2023-03-16T18:36:10.427Z,17.30
2023-03-16T18:38:42.580Z,16.70
2023-03-16T18:41:34.364Z,24.30
2023-03-16T18:44:16.875Z,26.20
2023-03-16T18:46:46.855Z,28.10
2023-03-16T18:49:20.815Z,28.30
2023-03-16T18:51:53.539Z,23.70
2023-03-16T18:54:28.380Z,31.80
2023-03-16T18:56:58.865Z,28.60
2023-03-16T18:59:27.762Z,24.10
2023-03-16T19:01:56.140Z,26.20
2023-03-16T19:04:29.493Z,20.80
2023-03-16T19:06:57.757Z,23.30
2023-03-16T19:09:28.903Z,22.50
2023-03-16T19:11:57.800Z,24.80
2023-03-16T19:14:28.381Z,25.70
2023-03-16T19:16:56.548Z,26.80
2023-03-16T19:19:25.367Z,28.30
2023-03-16T19:21:56.502Z,29.80
2023-03-16T19:24:33.978Z,31.70
2023-03-16T19:27:02.173Z,29.90
2023-03-16T19:29:33.251Z,29.50
2023-03-16T19:32:01.749Z,29.80
2023-03-16T19:34:29.625Z,32.40
2023-03-16T19:36:57.438Z,26.50
2023-03-16T19:39:25.817Z,29.60
2023-03-16T19:41:57.628Z,30.70
2023-03-16T19:44:28.161Z,30.20
2023-03-16T19:46:56.156Z,29.60
2023-03-16T19:49:27.052Z,25.00
2023-03-16T19:51:55.965Z,26.60
2023-03-16T19:54:34.124Z,33.90
2023-03-16T19:57:11.135Z,23.60
2023-03-16T19:59:39.644Z,25.70
2023-03-16T20:02:37.042Z,23.00
2023-03-16T20:05:06.735Z,19.20
2023-03-16T20:07:38.183Z,18.60
2023-03-16T20:10:06.519Z,17.50
2023-03-16T20:12:36.979Z,18.20
2023-03-16T20:15:05.163Z,20.80
2023-03-16T20:17:33.350Z,15.30
2023-03-16T20:20:01.193Z,14.80
2023-03-16T20:22:29.134Z,12.40
2023-03-16T20:24:57.992Z,14.10
2023-03-16T20:27:28.005Z,12.10
2023-03-16T20:29:56.074Z,13.40
2023-03-16T20:32:27.903Z,13.20
2023-03-16T20:34:56.450Z,15.90
2023-03-16T20:37:29.971Z,11.90
2023-03-16T20:39:59.711Z,13.60
2023-03-16T20:44:58.090Z,11.70
2023-03-16T20:47:28.062Z,16.10
2023-03-16T20:49:57.492Z,17.20
2023-03-16T20:52:30.872Z,18.10
2023-03-16T20:54:59.069Z,17.00
2023-03-16T20:57:30.662Z,15.70
2023-03-16T20:59:59.933Z,15.30
2023-03-16T21:02:28.960Z,15.10
2023-03-16T21:04:58.965Z,17.60
2023-03-16T21:07:27.298Z,13.50
2023-03-16T21:09:55.649Z,17.30
2023-03-16T21:12:26.811Z,16.50
2023-03-16T21:14:56.934Z,20.10
2023-03-16T21:17:38.135Z,21.70
2023-03-16T21:20:16.928Z,19.00
2023-03-16T21:22:46.097Z,23.60
2023-03-16T21:25:30.591Z,18.90
2023-03-16T21:28:03.258Z,15.90
2023-03-16T21:30:40.149Z,14.10
2023-03-16T21:33:39.000Z,14.50
2023-03-16T21:36:13.237Z,13.70
2023-03-16T21:38:41.270Z,13.00
2023-03-16T21:41:09.107Z,15.60
2023-03-16T21:43:37.489Z,13.00
2023-03-16T21:46:13.925Z,15.00
2023-03-16T21:48:42.502Z,12.20
2023-03-16T21:51:17.087Z,12.80
2023-03-16T21:53:46.569Z,13.80
2023-03-16T21:56:20.630Z,12.10
2023-03-16T21:58:50.066Z,12.70
2023-03-16T22:01:23.177Z,14.70
2023-03-16T22:03:53.308Z,11.50
2023-03-16T22:06:23.380Z,11.10
2023-03-16T22:08:51.406Z,11.20
2023-03-16T22:11:22.670Z,14.10
2023-03-16T22:13:51.722Z,14.10
2023-03-16T22:16:23.210Z,10.40
2023-03-16T22:18:56.392Z,19.30
2023-03-16T22:21:41.995Z,14.70
2023-03-16T22:24:16.666Z,11.10
2023-03-16T22:26:44.642Z,11.50
2023-03-16T22:29:21.121Z,14.10
2023-03-16T22:31:50.345Z,14.10
2023-03-16T22:34:42.062Z,12.50
2023-03-16T22:37:13.765Z,12.60
2023-03-16T22:39:41.554Z,12.00
2023-03-16T22:42:37.263Z,15.20
2023-03-16T22:45:23.053Z,15.40
2023-03-16T22:47:51.639Z,14.60
2023-03-16T22:50:20.628Z,14.80
2023-03-16T22:52:53.765Z,14.90
2023-03-16T22:55:25.811Z,14.50
2023-03-16T22:58:02.657Z,17.80
2023-03-16T23:00:31.439Z,17.00
2023-03-16T23:02:59.369Z,16.90
2023-03-16T23:06:59.843Z,18.10
2023-03-16T23:09:28.878Z,19.00
2023-03-16T23:11:58.008Z,18.90
2023-03-16T23:14:29.540Z,19.00
2023-03-16T23:16:57.360Z,16.90
2023-03-16T23:19:26.500Z,18.90
2023-03-16T23:21:57.438Z,16.20
2023-03-16T23:24:25.716Z,20.10
2023-03-16T23:26:54.528Z,22.20
2023-03-16T23:29:23.578Z,19.40
2023-03-16T23:31:51.454Z,21.30
2023-03-16T23:34:21.374Z,21.80
2023-03-16T23:36:49.961Z,19.20
2023-03-16T23:39:17.848Z,22.60
2023-03-16T23:41:48.127Z,20.40
2023-03-16T23:44:22.373Z,22.20
2023-03-16T23:46:50.970Z,19.50
2023-03-16T23:49:25.566Z,17.30
2023-03-16T23:51:54.464Z,20.30
2023-03-16T23:54:25.808Z,19.10
2023-03-16T23:56:53.966Z,21.40
2023-03-16T23:59:23.514Z,26.10
